sensor_id;sensor_type;location;lat;lon;timestamp;temperature;humidity
36552;DHT22;22559;54.176;12.102;2023-07-29T00:00:46;17.40;99.90
36552;DHT22;22559;54.176;12.102;2023-07-29T00:03:12;17.50;99.90
36552;DHT22;22559;54.176;12.102;2023-07-29T00:05:38;17.40;99.90
36552;DHT22;22559;54.176;12.102;2023-07-29T00:08:04;17.40;99.90
36552;DHT22;22559;54.176;12.102;2023-07-29T00:10:31;17.30;99.90
36552;DHT22;22559;54.176;12.102;2023-07-29T00:12:57;17.30;99.90
36552;DHT22;22559;54.176;12.102;2023-07-29T00:15:23;17.40;99.90
36552;DHT22;22559;54.176;12.102;2023-07-29T00:17:49;17.40;99.90
36552;DHT22;22559;54.176;12.102;2023-07-29T00:20:14;17.40;99.90
36552;DHT22;22559;54.176;12.102;2023-07-29T00:22:40;17.30;99.90
36552;DHT22;22559;54.176;12.102;2023-07-29T00:25:06;17.40;99.90
36552;DHT22;22559;54.176;12.102;2023-07-29T00:27:32;17.30;99.90
36552;DHT22;22559;54.176;12.102;2023-07-29T00:29:58;17.40;99.90
36552;DHT22;22559;54.176;12.102;2023-07-29T00:32:23;17.40;99.90
36552;DHT22;22559;54.176;12.102;2023-07-29T00:34:49;17.40;99.90
36552;DHT22;22559;54.176;12.102;2023-07-29T00:37:15;17.50;99.90
36552;DHT22;22559;54.176;12.102;2023-07-29T00:39:40;17.50;99.90
36552;DHT22;22559;54.176;12.102;2023-07-29T00:42:06;17.50;99.90
36552;DHT22;22559;54.176;12.102;2023-07-29T00:44:32;17.50;99.90
36552;DHT22;22559;54.176;12.102;2023-07-29T00:46:58;17.60;99.90
36552;DHT22;22559;54.176;12.102;2023-07-29T00:49:26;17.60;99.90
36552;DHT22;22559;54.176;12.102;2023-07-29T00:51:51;17.50;99.90
36552;DHT22;22559;54.176;12.102;2023-07-29T00:54:17;17.50;99.90
36552;DHT22;22559;54.176;12.102;2023-07-29T00:56:43;17.50;99.90
36552;DHT22;22559;54.176;12.102;2023-07-29T00:59:09;17.50;99.90
36552;DHT22;22559;54.176;12.102;2023-07-29T01:01:35;17.50;99.90
36552;DHT22;22559;54.176;12.102;2023-07-29T01:04:01;17.40;99.90
36552;DHT22;22559;54.176;12.102;2023-07-29T01:09:05;17.40;99.90
36552;DHT22;22559;54.176;12.102;2023-07-29T01:12:06;17.30;99.90
36552;DHT22;22559;54.176;12.102;2023-07-29T01:17:33;17.30;99.90
36552;DHT22;22559;54.176;12.102;2023-07-29T01:20:08;17.30;99.90
36552;DHT22;22559;54.176;12.102;2023-07-29T01:22:35;17.30;99.90
36552;DHT22;22559;54.176;12.102;2023-07-29T01:25:02;17.30;99.90
36552;DHT22;22559;54.176;12.102;2023-07-29T01:27:29;17.30;99.90
36552;DHT22;22559;54.176;12.102;2023-07-29T01:29:56;17.30;99.90
36552;DHT22;22559;54.176;12.102;2023-07-29T01:32:38;17.20;99.90
36552;DHT22;22559;54.176;12.102;2023-07-29T01:37:51;17.20;99.90
36552;DHT22;22559;54.176;12.102;2023-07-29T01:40:18;17.10;99.90
36552;DHT22;22559;54.176;12.102;2023-07-29T01:42:44;17.10;99.90
36552;DHT22;22559;54.176;12.102;2023-07-29T01:45:11;17.10;99.90
36552;DHT22;22559;54.176;12.102;2023-07-29T01:47:37;17.10;99.90
36552;DHT22;22559;54.176;12.102;2023-07-29T01:50:06;17.10;99.90
36552;DHT22;22559;54.176;12.102;2023-07-29T01:52:32;17.10;99.90
36552;DHT22;22559;54.176;12.102;2023-07-29T01:54:57;17.10;99.90
36552;DHT22;22559;54.176;12.102;2023-07-29T01:57:23;17.20;99.90
36552;DHT22;22559;54.176;12.102;2023-07-29T01:59:48;17.20;99.90
36552;DHT22;22559;54.176;12.102;2023-07-29T02:02:14;17.10;99.90
36552;DHT22;22559;54.176;12.102;2023-07-29T02:04:40;17.10;99.90
36552;DHT22;22559;54.176;12.102;2023-07-29T02:07:05;16.90;99.90
36552;DHT22;22559;54.176;12.102;2023-07-29T02:09:31;16.80;99.90
36552;DHT22;22559;54.176;12.102;2023-07-29T02:11:57;16.70;99.90
36552;DHT22;22559;54.176;12.102;2023-07-29T02:14:23;16.70;99.90
36552;DHT22;22559;54.176;12.102;2023-07-29T02:16:49;16.70;99.90
36552;DHT22;22559;54.176;12.102;2023-07-29T02:19:15;16.80;99.90
36552;DHT22;22559;54.176;12.102;2023-07-29T02:21:41;16.80;99.90
36552;DHT22;22559;54.176;12.102;2023-07-29T02:24:07;16.80;99.90
36552;DHT22;22559;54.176;12.102;2023-07-29T02:26:32;16.90;99.90
36552;DHT22;22559;54.176;12.102;2023-07-29T02:28:58;16.90;99.90
36552;DHT22;22559;54.176;12.102;2023-07-29T02:31:24;16.90;99.90
36552;DHT22;22559;54.176;12.102;2023-07-29T02:33:51;16.80;99.90
36552;DHT22;22559;54.176;12.102;2023-07-29T02:36:17;16.80;99.90
36552;DHT22;22559;54.176;12.102;2023-07-29T02:38:42;16.70;99.90
36552;DHT22;22559;54.176;12.102;2023-07-29T02:41:09;16.70;99.90
36552;DHT22;22559;54.176;12.102;2023-07-29T02:43:35;16.70;99.90
36552;DHT22;22559;54.176;12.102;2023-07-29T02:46:02;16.60;99.90
36552;DHT22;22559;54.176;12.102;2023-07-29T02:48:28;16.60;99.90
36552;DHT22;22559;54.176;12.102;2023-07-29T02:50:54;16.50;99.90
36552;DHT22;22559;54.176;12.102;2023-07-29T02:53:21;16.50;99.90
36552;DHT22;22559;54.176;12.102;2023-07-29T02:55:47;16.50;99.90
36552;DHT22;22559;54.176;12.102;2023-07-29T02:58:12;16.40;99.90
36552;DHT22;22559;54.176;12.102;2023-07-29T03:00:38;16.30;99.90
36552;DHT22;22559;54.176;12.102;2023-07-29T03:03:10;16.30;99.90
36552;DHT22;22559;54.176;12.102;2023-07-29T03:05:36;16.30;99.90
36552;DHT22;22559;54.176;12.102;2023-07-29T03:08:03;16.40;99.90
36552;DHT22;22559;54.176;12.102;2023-07-29T03:10:29;16.40;99.90
36552;DHT22;22559;54.176;12.102;2023-07-29T03:12:55;16.30;99.90
36552;DHT22;22559;54.176;12.102;2023-07-29T03:15:24;16.20;99.90
36552;DHT22;22559;54.176;12.102;2023-07-29T03:17:51;16.30;99.90
36552;DHT22;22559;54.176;12.102;2023-07-29T03:20:16;16.30;99.90
36552;DHT22;22559;54.176;12.102;2023-07-29T03:22:43;16.30;99.90
36552;DHT22;22559;54.176;12.102;2023-07-29T03:25:09;16.20;99.90
36552;DHT22;22559;54.176;12.102;2023-07-29T03:27:35;16.20;99.90
36552;DHT22;22559;54.176;12.102;2023-07-29T03:30:03;16.20;99.90
36552;DHT22;22559;54.176;12.102;2023-07-29T03:32:29;16.30;99.90
36552;DHT22;22559;54.176;12.102;2023-07-29T03:34:54;16.40;99.90
36552;DHT22;22559;54.176;12.102;2023-07-29T03:37:20;16.40;99.90
36552;DHT22;22559;54.176;12.102;2023-07-29T03:39:47;16.40;99.90
36552;DHT22;22559;54.176;12.102;2023-07-29T03:42:12;16.30;99.90
36552;DHT22;22559;54.176;12.102;2023-07-29T03:44:38;16.30;99.90
36552;DHT22;22559;54.176;12.102;2023-07-29T03:47:05;16.40;99.90
36552;DHT22;22559;54.176;12.102;2023-07-29T03:49:31;16.60;99.90
36552;DHT22;22559;54.176;12.102;2023-07-29T03:51:57;16.50;99.90
36552;DHT22;22559;54.176;12.102;2023-07-29T03:54:22;16.40;99.90
36552;DHT22;22559;54.176;12.102;2023-07-29T03:56:48;16.30;99.90
36552;DHT22;22559;54.176;12.102;2023-07-29T03:59:14;16.20;99.90
36552;DHT22;22559;54.176;12.102;2023-07-29T04:01:39;16.20;99.90
36552;DHT22;22559;54.176;12.102;2023-07-29T04:04:05;16.10;99.90
36552;DHT22;22559;54.176;12.102;2023-07-29T04:06:30;16.10;99.90
36552;DHT22;22559;54.176;12.102;2023-07-29T04:08:57;16.10;99.90
36552;DHT22;22559;54.176;12.102;2023-07-29T04:11:24;16.10;99.90
36552;DHT22;22559;54.176;12.102;2023-07-29T04:13:49;16.10;99.90
36552;DHT22;22559;54.176;12.102;2023-07-29T04:16:15;16.10;99.90
36552;DHT22;22559;54.176;12.102;2023-07-29T04:18:42;16.10;99.90
36552;DHT22;22559;54.176;12.102;2023-07-29T04:21:07;16.20;99.90
36552;DHT22;22559;54.176;12.102;2023-07-29T04:23:33;16.20;99.90
36552;DHT22;22559;54.176;12.102;2023-07-29T04:25:59;16.20;99.90
36552;DHT22;22559;54.176;12.102;2023-07-29T04:28:24;16.20;99.90
36552;DHT22;22559;54.176;12.102;2023-07-29T04:30:50;16.30;99.90
36552;DHT22;22559;54.176;12.102;2023-07-29T04:33:16;16.40;99.90
36552;DHT22;22559;54.176;12.102;2023-07-29T04:35:41;16.40;99.90
36552;DHT22;22559;54.176;12.102;2023-07-29T04:38:07;16.50;99.90
36552;DHT22;22559;54.176;12.102;2023-07-29T04:40:33;16.50;99.90
36552;DHT22;22559;54.176;12.102;2023-07-29T04:43:01;16.50;99.90
36552;DHT22;22559;54.176;12.102;2023-07-29T04:45:30;16.60;99.90
36552;DHT22;22559;54.176;12.102;2023-07-29T04:47:56;16.70;99.90
36552;DHT22;22559;54.176;12.102;2023-07-29T04:50:22;17.00;99.90
36552;DHT22;22559;54.176;12.102;2023-07-29T04:52:48;17.20;99.90
36552;DHT22;22559;54.176;12.102;2023-07-29T04:55:13;17.30;99.90
36552;DHT22;22559;54.176;12.102;2023-07-29T04:57:39;17.40;99.90
36552;DHT22;22559;54.176;12.102;2023-07-29T05:00:05;17.50;99.90
36552;DHT22;22559;54.176;12.102;2023-07-29T05:02:31;17.50;99.90
36552;DHT22;22559;54.176;12.102;2023-07-29T05:04:56;17.50;99.90
36552;DHT22;22559;54.176;12.102;2023-07-29T05:07:22;17.60;99.90
36552;DHT22;22559;54.176;12.102;2023-07-29T05:09:48;17.60;99.90
36552;DHT22;22559;54.176;12.102;2023-07-29T05:12:13;17.60;99.90
36552;DHT22;22559;54.176;12.102;2023-07-29T05:14:39;17.70;99.90
36552;DHT22;22559;54.176;12.102;2023-07-29T05:17:05;17.70;99.90
36552;DHT22;22559;54.176;12.102;2023-07-29T05:19:31;17.80;99.90
36552;DHT22;22559;54.176;12.102;2023-07-29T05:21:57;17.80;99.90
36552;DHT22;22559;54.176;12.102;2023-07-29T05:24:23;17.80;99.90
36552;DHT22;22559;54.176;12.102;2023-07-29T05:26:49;17.80;99.90
36552;DHT22;22559;54.176;12.102;2023-07-29T05:29:14;17.80;99.90
36552;DHT22;22559;54.176;12.102;2023-07-29T05:31:40;17.90;99.90
36552;DHT22;22559;54.176;12.102;2023-07-29T05:34:06;17.90;99.90
36552;DHT22;22559;54.176;12.102;2023-07-29T05:36:31;17.90;99.90
36552;DHT22;22559;54.176;12.102;2023-07-29T05:38:57;17.90;99.90
36552;DHT22;22559;54.176;12.102;2023-07-29T05:41:23;17.90;99.90
36552;DHT22;22559;54.176;12.102;2023-07-29T05:43:48;17.90;99.90
36552;DHT22;22559;54.176;12.102;2023-07-29T05:46:14;17.90;99.90
36552;DHT22;22559;54.176;12.102;2023-07-29T05:48:40;18.00;99.90
36552;DHT22;22559;54.176;12.102;2023-07-29T05:51:05;18.00;99.90
36552;DHT22;22559;54.176;12.102;2023-07-29T05:53:31;18.00;99.90
36552;DHT22;22559;54.176;12.102;2023-07-29T05:55:57;18.00;99.90
36552;DHT22;22559;54.176;12.102;2023-07-29T05:58:22;18.10;99.90
36552;DHT22;22559;54.176;12.102;2023-07-29T06:00:48;18.10;99.90
36552;DHT22;22559;54.176;12.102;2023-07-29T06:03:13;18.10;99.90
36552;DHT22;22559;54.176;12.102;2023-07-29T06:05:39;18.10;99.90
36552;DHT22;22559;54.176;12.102;2023-07-29T06:08:05;18.10;99.90
36552;DHT22;22559;54.176;12.102;2023-07-29T06:10:31;18.10;99.90
36552;DHT22;22559;54.176;12.102;2023-07-29T06:12:56;18.10;99.90
36552;DHT22;22559;54.176;12.102;2023-07-29T06:15:22;18.20;99.90
36552;DHT22;22559;54.176;12.102;2023-07-29T06:17:48;18.30;99.90
36552;DHT22;22559;54.176;12.102;2023-07-29T06:20:14;18.30;99.90
36552;DHT22;22559;54.176;12.102;2023-07-29T06:22:41;18.40;99.90
36552;DHT22;22559;54.176;12.102;2023-07-29T06:25:07;18.40;99.90
36552;DHT22;22559;54.176;12.102;2023-07-29T06:27:32;18.50;99.90
36552;DHT22;22559;54.176;12.102;2023-07-29T06:29:58;18.50;99.90
36552;DHT22;22559;54.176;12.102;2023-07-29T06:32:24;18.40;99.90
36552;DHT22;22559;54.176;12.102;2023-07-29T06:34:49;18.40;99.90
36552;DHT22;22559;54.176;12.102;2023-07-29T06:37:17;18.50;99.90
36552;DHT22;22559;54.176;12.102;2023-07-29T06:39:42;18.50;99.90
36552;DHT22;22559;54.176;12.102;2023-07-29T06:42:08;18.60;99.90
36552;DHT22;22559;54.176;12.102;2023-07-29T06:44:34;18.70;99.90
36552;DHT22;22559;54.176;12.102;2023-07-29T06:46:59;18.80;99.90
36552;DHT22;22559;54.176;12.102;2023-07-29T06:49:25;18.80;99.90
36552;DHT22;22559;54.176;12.102;2023-07-29T06:51:50;18.90;99.90
36552;DHT22;22559;54.176;12.102;2023-07-29T06:54:16;19.00;99.90
36552;DHT22;22559;54.176;12.102;2023-07-29T06:56:42;19.00;99.90
36552;DHT22;22559;54.176;12.102;2023-07-29T06:59:08;19.10;99.90
36552;DHT22;22559;54.176;12.102;2023-07-29T07:01:34;19.10;99.90
36552;DHT22;22559;54.176;12.102;2023-07-29T07:04:00;19.10;99.90
36552;DHT22;22559;54.176;12.102;2023-07-29T07:06:25;19.10;99.90
36552;DHT22;22559;54.176;12.102;2023-07-29T07:08:51;19.20;99.90
36552;DHT22;22559;54.176;12.102;2023-07-29T07:11:18;19.30;99.90
36552;DHT22;22559;54.176;12.102;2023-07-29T07:13:44;19.50;99.90
36552;DHT22;22559;54.176;12.102;2023-07-29T07:16:09;19.70;99.90
36552;DHT22;22559;54.176;12.102;2023-07-29T07:18:35;19.80;99.90
36552;DHT22;22559;54.176;12.102;2023-07-29T07:21:01;20.00;99.90
36552;DHT22;22559;54.176;12.102;2023-07-29T07:23:26;20.20;99.90
36552;DHT22;22559;54.176;12.102;2023-07-29T07:25:52;20.30;99.90
36552;DHT22;22559;54.176;12.102;2023-07-29T07:28:18;20.30;99.90
36552;DHT22;22559;54.176;12.102;2023-07-29T07:30:43;20.50;99.90
36552;DHT22;22559;54.176;12.102;2023-07-29T07:33:09;20.60;99.90
36552;DHT22;22559;54.176;12.102;2023-07-29T07:35:35;20.70;99.90
36552;DHT22;22559;54.176;12.102;2023-07-29T07:38:00;20.80;99.90
36552;DHT22;22559;54.176;12.102;2023-07-29T07:40:30;20.90;99.90
36552;DHT22;22559;54.176;12.102;2023-07-29T07:42:56;20.90;99.90
36552;DHT22;22559;54.176;12.102;2023-07-29T07:45:21;20.90;99.90
36552;DHT22;22559;54.176;12.102;2023-07-29T07:47:47;21.00;99.90
36552;DHT22;22559;54.176;12.102;2023-07-29T07:50:13;21.00;99.90
36552;DHT22;22559;54.176;12.102;2023-07-29T07:52:39;21.20;99.90
36552;DHT22;22559;54.176;12.102;2023-07-29T07:55:05;21.50;99.90
36552;DHT22;22559;54.176;12.102;2023-07-29T07:57:31;21.80;99.90
36552;DHT22;22559;54.176;12.102;2023-07-29T07:59:57;22.00;99.90
36552;DHT22;22559;54.176;12.102;2023-07-29T08:02:22;22.00;99.90
36552;DHT22;22559;54.176;12.102;2023-07-29T08:04:48;22.00;99.90
36552;DHT22;22559;54.176;12.102;2023-07-29T08:07:14;22.00;99.90
36552;DHT22;22559;54.176;12.102;2023-07-29T08:09:39;21.90;99.90
36552;DHT22;22559;54.176;12.102;2023-07-29T08:12:05;22.00;99.90
36552;DHT22;22559;54.176;12.102;2023-07-29T08:14:31;22.00;99.90
36552;DHT22;22559;54.176;12.102;2023-07-29T08:16:57;22.00;99.90
36552;DHT22;22559;54.176;12.102;2023-07-29T08:19:23;21.90;99.90
36552;DHT22;22559;54.176;12.102;2023-07-29T08:21:48;21.90;99.90
36552;DHT22;22559;54.176;12.102;2023-07-29T08:24:14;22.00;99.90
36552;DHT22;22559;54.176;12.102;2023-07-29T08:26:40;22.00;99.90
36552;DHT22;22559;54.176;12.102;2023-07-29T08:29:05;22.10;99.90
36552;DHT22;22559;54.176;12.102;2023-07-29T08:31:31;22.00;99.90
36552;DHT22;22559;54.176;12.102;2023-07-29T08:33:59;22.00;99.90
36552;DHT22;22559;54.176;12.102;2023-07-29T08:36:25;22.20;99.90
36552;DHT22;22559;54.176;12.102;2023-07-29T08:38:51;22.40;99.90
36552;DHT22;22559;54.176;12.102;2023-07-29T08:41:21;22.50;99.90
36552;DHT22;22559;54.176;12.102;2023-07-29T08:46:22;22.90;99.90
36552;DHT22;22559;54.176;12.102;2023-07-29T08:48:48;23.00;99.90
36552;DHT22;22559;54.176;12.102;2023-07-29T08:51:14;23.10;99.90
36552;DHT22;22559;54.176;12.102;2023-07-29T08:53:41;23.30;99.90
36552;DHT22;22559;54.176;12.102;2023-07-29T08:56:07;23.70;99.90
36552;DHT22;22559;54.176;12.102;2023-07-29T08:58:33;23.80;99.90
36552;DHT22;22559;54.176;12.102;2023-07-29T09:01:00;23.80;99.90
36552;DHT22;22559;54.176;12.102;2023-07-29T09:03:26;24.30;99.90
36552;DHT22;22559;54.176;12.102;2023-07-29T09:05:52;24.50;99.90
36552;DHT22;22559;54.176;12.102;2023-07-29T09:08:19;24.50;99.90
36552;DHT22;22559;54.176;12.102;2023-07-29T09:10:46;24.70;99.90
36552;DHT22;22559;54.176;12.102;2023-07-29T09:13:12;24.70;99.90
36552;DHT22;22559;54.176;12.102;2023-07-29T09:15:38;24.30;99.90
36552;DHT22;22559;54.176;12.102;2023-07-29T09:18:11;24.20;99.90
36552;DHT22;22559;54.176;12.102;2023-07-29T09:20:37;24.10;99.90
36552;DHT22;22559;54.176;12.102;2023-07-29T09:23:03;23.90;99.90
36552;DHT22;22559;54.176;12.102;2023-07-29T09:25:32;23.90;99.90
36552;DHT22;22559;54.176;12.102;2023-07-29T09:28:01;23.90;99.90
36552;DHT22;22559;54.176;12.102;2023-07-29T09:30:28;24.10;99.90
36552;DHT22;22559;54.176;12.102;2023-07-29T09:32:57;24.10;99.90
36552;DHT22;22559;54.176;12.102;2023-07-29T09:35:27;24.10;99.90
36552;DHT22;22559;54.176;12.102;2023-07-29T09:37:53;24.10;99.90
36552;DHT22;22559;54.176;12.102;2023-07-29T09:40:19;24.30;99.90
36552;DHT22;22559;54.176;12.102;2023-07-29T09:42:55;24.50;99.90
36552;DHT22;22559;54.176;12.102;2023-07-29T09:45:25;24.90;99.90
36552;DHT22;22559;54.176;12.102;2023-07-29T09:47:52;24.80;99.90
36552;DHT22;22559;54.176;12.102;2023-07-29T09:50:18;24.50;99.90
36552;DHT22;22559;54.176;12.102;2023-07-29T09:52:44;24.30;99.90
36552;DHT22;22559;54.176;12.102;2023-07-29T09:55:13;24.10;99.90
36552;DHT22;22559;54.176;12.102;2023-07-29T09:57:43;23.90;99.90
36552;DHT22;22559;54.176;12.102;2023-07-29T10:00:11;23.80;99.90
36552;DHT22;22559;54.176;12.102;2023-07-29T10:02:42;23.80;99.90
36552;DHT22;22559;54.176;12.102;2023-07-29T10:05:09;23.70;99.90
36552;DHT22;22559;54.176;12.102;2023-07-29T10:07:39;23.70;99.90
36552;DHT22;22559;54.176;12.102;2023-07-29T10:10:06;23.70;99.90
36552;DHT22;22559;54.176;12.102;2023-07-29T10:12:32;23.90;99.90
36552;DHT22;22559;54.176;12.102;2023-07-29T10:15:03;24.20;99.90
36552;DHT22;22559;54.176;12.102;2023-07-29T10:17:30;24.50;99.90
36552;DHT22;22559;54.176;12.102;2023-07-29T10:19:57;24.80;99.90
36552;DHT22;22559;54.176;12.102;2023-07-29T10:22:27;24.90;99.90
36552;DHT22;22559;54.176;12.102;2023-07-29T10:24:56;24.70;99.90
36552;DHT22;22559;54.176;12.102;2023-07-29T10:27:24;24.50;99.90
36552;DHT22;22559;54.176;12.102;2023-07-29T10:29:50;24.40;99.90
36552;DHT22;22559;54.176;12.102;2023-07-29T10:32:20;24.10;99.90
36552;DHT22;22559;54.176;12.102;2023-07-29T10:34:49;24.10;99.90
36552;DHT22;22559;54.176;12.102;2023-07-29T10:37:15;23.80;99.90
36552;DHT22;22559;54.176;12.102;2023-07-29T10:39:44;23.60;99.90
36552;DHT22;22559;54.176;12.102;2023-07-29T10:42:16;23.70;99.90
36552;DHT22;22559;54.176;12.102;2023-07-29T10:44:45;23.50;99.90
36552;DHT22;22559;54.176;12.102;2023-07-29T10:47:26;23.40;99.90
36552;DHT22;22559;54.176;12.102;2023-07-29T10:49:57;23.40;99.90
36552;DHT22;22559;54.176;12.102;2023-07-29T10:55:03;23.00;99.90
36552;DHT22;22559;54.176;12.102;2023-07-29T10:57:39;22.90;99.90
36552;DHT22;22559;54.176;12.102;2023-07-29T11:00:08;22.80;99.90
36552;DHT22;22559;54.176;12.102;2023-07-29T11:02:38;22.40;99.90
36552;DHT22;22559;54.176;12.102;2023-07-29T11:05:21;22.20;99.90
36552;DHT22;22559;54.176;12.102;2023-07-29T11:07:48;22.10;99.90
36552;DHT22;22559;54.176;12.102;2023-07-29T11:10:15;21.90;99.90
36552;DHT22;22559;54.176;12.102;2023-07-29T11:12:48;21.50;99.90
36552;DHT22;22559;54.176;12.102;2023-07-29T11:17:44;21.00;99.90
36552;DHT22;22559;54.176;12.102;2023-07-29T11:20:11;20.60;99.90
36552;DHT22;22559;54.176;12.102;2023-07-29T11:22:37;20.40;99.90
36552;DHT22;22559;54.176;12.102;2023-07-29T11:25:04;20.30;99.90
36552;DHT22;22559;54.176;12.102;2023-07-29T11:27:30;20.20;99.90
36552;DHT22;22559;54.176;12.102;2023-07-29T11:29:58;20.10;99.90
36552;DHT22;22559;54.176;12.102;2023-07-29T11:32:24;20.10;99.90
36552;DHT22;22559;54.176;12.102;2023-07-29T11:34:50;20.00;99.90
36552;DHT22;22559;54.176;12.102;2023-07-29T11:37:16;19.90;99.90
36552;DHT22;22559;54.176;12.102;2023-07-29T11:39:43;19.80;99.90
36552;DHT22;22559;54.176;12.102;2023-07-29T11:42:15;19.40;99.90
36552;DHT22;22559;54.176;12.102;2023-07-29T11:44:41;18.90;99.90
36552;DHT22;22559;54.176;12.102;2023-07-29T11:47:08;18.70;99.90
36552;DHT22;22559;54.176;12.102;2023-07-29T11:49:34;18.50;99.90
36552;DHT22;22559;54.176;12.102;2023-07-29T11:52:01;18.40;99.90
36552;DHT22;22559;54.176;12.102;2023-07-29T11:54:27;18.40;99.90
36552;DHT22;22559;54.176;12.102;2023-07-29T11:56:53;18.30;99.90
36552;DHT22;22559;54.176;12.102;2023-07-29T11:59:19;18.40;99.90
36552;DHT22;22559;54.176;12.102;2023-07-29T12:01:45;18.50;99.90
36552;DHT22;22559;54.176;12.102;2023-07-29T12:04:11;18.50;99.90
36552;DHT22;22559;54.176;12.102;2023-07-29T12:06:37;18.50;99.90
36552;DHT22;22559;54.176;12.102;2023-07-29T12:09:04;18.50;99.90
36552;DHT22;22559;54.176;12.102;2023-07-29T12:11:30;18.40;99.90
36552;DHT22;22559;54.176;12.102;2023-07-29T12:13:56;18.30;99.90
36552;DHT22;22559;54.176;12.102;2023-07-29T12:16:21;18.30;99.90
36552;DHT22;22559;54.176;12.102;2023-07-29T12:18:50;18.20;99.90
36552;DHT22;22559;54.176;12.102;2023-07-29T12:21:16;18.20;99.90
36552;DHT22;22559;54.176;12.102;2023-07-29T12:23:43;18.00;99.90
36552;DHT22;22559;54.176;12.102;2023-07-29T12:26:08;17.90;99.90
36552;DHT22;22559;54.176;12.102;2023-07-29T12:28:34;17.80;99.90
36552;DHT22;22559;54.176;12.102;2023-07-29T12:30:59;17.70;99.90
36552;DHT22;22559;54.176;12.102;2023-07-29T12:33:37;17.70;99.90
36552;DHT22;22559;54.176;12.102;2023-07-29T12:36:04;17.60;99.90
36552;DHT22;22559;54.176;12.102;2023-07-29T12:38:30;17.70;99.90
36552;DHT22;22559;54.176;12.102;2023-07-29T12:40:56;17.70;99.90
36552;DHT22;22559;54.176;12.102;2023-07-29T12:43:22;17.80;99.90
36552;DHT22;22559;54.176;12.102;2023-07-29T12:45:50;17.90;99.90
36552;DHT22;22559;54.176;12.102;2023-07-29T12:48:16;17.90;99.90
36552;DHT22;22559;54.176;12.102;2023-07-29T12:50:42;18.00;99.90
36552;DHT22;22559;54.176;12.102;2023-07-29T12:53:09;17.90;99.90
36552;DHT22;22559;54.176;12.102;2023-07-29T12:55:37;17.90;99.90
36552;DHT22;22559;54.176;12.102;2023-07-29T12:58:03;18.00;99.90
36552;DHT22;22559;54.176;12.102;2023-07-29T13:00:29;18.00;99.90
36552;DHT22;22559;54.176;12.102;2023-07-29T13:02:55;18.10;99.90
36552;DHT22;22559;54.176;12.102;2023-07-29T13:05:21;18.20;99.90
36552;DHT22;22559;54.176;12.102;2023-07-29T13:07:47;18.40;99.90
36552;DHT22;22559;54.176;12.102;2023-07-29T13:10:13;18.50;99.90
36552;DHT22;22559;54.176;12.102;2023-07-29T13:12:39;18.50;99.90
36552;DHT22;22559;54.176;12.102;2023-07-29T13:15:06;18.60;99.90
36552;DHT22;22559;54.176;12.102;2023-07-29T13:17:32;18.60;99.90
36552;DHT22;22559;54.176;12.102;2023-07-29T13:19:58;18.60;99.90
36552;DHT22;22559;54.176;12.102;2023-07-29T13:22:24;18.80;99.90
36552;DHT22;22559;54.176;12.102;2023-07-29T13:24:49;18.90;99.90
36552;DHT22;22559;54.176;12.102;2023-07-29T13:27:15;19.10;99.90
36552;DHT22;22559;54.176;12.102;2023-07-29T13:29:40;19.20;99.90
36552;DHT22;22559;54.176;12.102;2023-07-29T13:32:07;19.30;99.90
36552;DHT22;22559;54.176;12.102;2023-07-29T13:34:33;19.50;99.90
36552;DHT22;22559;54.176;12.102;2023-07-29T13:37:00;19.70;99.90
36552;DHT22;22559;54.176;12.102;2023-07-29T13:39:25;20.10;99.90
36552;DHT22;22559;54.176;12.102;2023-07-29T13:41:51;20.40;99.90
36552;DHT22;22559;54.176;12.102;2023-07-29T13:44:16;20.70;99.90
36552;DHT22;22559;54.176;12.102;2023-07-29T13:46:42;21.00;99.90
36552;DHT22;22559;54.176;12.102;2023-07-29T13:49:08;21.20;99.90
36552;DHT22;22559;54.176;12.102;2023-07-29T13:51:33;21.40;99.90
36552;DHT22;22559;54.176;12.102;2023-07-29T13:53:59;21.50;99.90
36552;DHT22;22559;54.176;12.102;2023-07-29T13:56:24;21.50;99.90
36552;DHT22;22559;54.176;12.102;2023-07-29T13:58:50;21.40;99.90
36552;DHT22;22559;54.176;12.102;2023-07-29T14:01:16;21.30;99.90
36552;DHT22;22559;54.176;12.102;2023-07-29T14:03:41;21.20;99.90
36552;DHT22;22559;54.176;12.102;2023-07-29T14:06:07;21.20;99.90
36552;DHT22;22559;54.176;12.102;2023-07-29T14:08:32;21.20;99.90
36552;DHT22;22559;54.176;12.102;2023-07-29T14:11:00;21.30;99.90
36552;DHT22;22559;54.176;12.102;2023-07-29T14:13:26;21.30;99.90
36552;DHT22;22559;54.176;12.102;2023-07-29T14:15:51;21.40;99.90
36552;DHT22;22559;54.176;12.102;2023-07-29T14:18:17;21.50;99.90
36552;DHT22;22559;54.176;12.102;2023-07-29T14:20:43;21.70;99.90
36552;DHT22;22559;54.176;12.102;2023-07-29T14:23:08;21.80;99.90
36552;DHT22;22559;54.176;12.102;2023-07-29T14:25:34;21.90;99.90
36552;DHT22;22559;54.176;12.102;2023-07-29T14:27:59;22.10;99.90
36552;DHT22;22559;54.176;12.102;2023-07-29T14:30:25;22.50;99.90
36552;DHT22;22559;54.176;12.102;2023-07-29T14:32:51;22.70;99.90
36552;DHT22;22559;54.176;12.102;2023-07-29T14:35:16;22.60;99.90
36552;DHT22;22559;54.176;12.102;2023-07-29T14:37:42;22.60;99.90
36552;DHT22;22559;54.176;12.102;2023-07-29T14:40:08;22.70;99.90
36552;DHT22;22559;54.176;12.102;2023-07-29T14:42:33;22.70;99.90
36552;DHT22;22559;54.176;12.102;2023-07-29T14:44:59;22.90;99.90
36552;DHT22;22559;54.176;12.102;2023-07-29T14:47:25;23.40;99.90
36552;DHT22;22559;54.176;12.102;2023-07-29T14:49:50;24.00;99.90
36552;DHT22;22559;54.176;12.102;2023-07-29T14:52:16;24.50;99.90
36552;DHT22;22559;54.176;12.102;2023-07-29T14:54:41;24.90;99.90
36552;DHT22;22559;54.176;12.102;2023-07-29T14:57:07;25.60;99.90
36552;DHT22;22559;54.176;12.102;2023-07-29T14:59:33;25.70;99.90
36552;DHT22;22559;54.176;12.102;2023-07-29T15:01:59;25.30;99.90
36552;DHT22;22559;54.176;12.102;2023-07-29T15:04:24;24.70;99.90
36552;DHT22;22559;54.176;12.102;2023-07-29T15:06:50;24.00;99.90
36552;DHT22;22559;54.176;12.102;2023-07-29T15:09:16;23.60;99.90
36552;DHT22;22559;54.176;12.102;2023-07-29T15:11:42;23.30;99.90
36552;DHT22;22559;54.176;12.102;2023-07-29T15:14:07;23.00;99.90
36552;DHT22;22559;54.176;12.102;2023-07-29T15:16:33;22.90;99.90
36552;DHT22;22559;54.176;12.102;2023-07-29T15:19:03;22.80;99.90
36552;DHT22;22559;54.176;12.102;2023-07-29T15:21:30;22.90;99.90
36552;DHT22;22559;54.176;12.102;2023-07-29T15:23:55;22.90;99.90
36552;DHT22;22559;54.176;12.102;2023-07-29T15:26:21;22.80;99.90